sensor_id;sensor_type;location;lat;lon;timestamp;P1;durP1;ratioP1;P2;durP2;ratioP2
35977;SDS011;22056;0.000;0.000;2023-11-21T00:01:25;1.27;;;0.52;;
35977;SDS011;22056;0.000;0.000;2023-11-21T00:03:51;2.05;;;0.70;;
35977;SDS011;22056;0.000;0.000;2023-11-21T00:06:20;2.42;;;0.57;;
35977;SDS011;22056;0.000;0.000;2023-11-21T00:08:46;1.77;;;0.60;;
35977;SDS011;22056;0.000;0.000;2023-11-21T00:11:12;1.63;;;0.50;;
35977;SDS011;22056;0.000;0.000;2023-11-21T00:13:38;1.50;;;0.60;;
35977;SDS011;22056;0.000;0.000;2023-11-21T00:16:04;1.83;;;0.63;;
35977;SDS011;22056;0.000;0.000;2023-11-21T00:18:32;2.72;;;0.60;;
35977;SDS011;22056;0.000;0.000;2023-11-21T00:20:58;1.60;;;0.60;;
35977;SDS011;22056;0.000;0.000;2023-11-21T00:23:25;0.88;;;0.50;;
35977;SDS011;22056;0.000;0.000;2023-11-21T00:25:51;0.80;;;0.47;;
35977;SDS011;22056;0.000;0.000;2023-11-21T00:28:17;1.67;;;0.55;;
35977;SDS011;22056;0.000;0.000;2023-11-21T00:30:43;1.52;;;0.65;;
35977;SDS011;22056;0.000;0.000;2023-11-21T00:33:09;0.93;;;0.47;;
35977;SDS011;22056;0.000;0.000;2023-11-21T00:35:36;1.23;;;0.40;;
35977;SDS011;22056;0.000;0.000;2023-11-21T00:38:02;1.67;;;0.60;;
35977;SDS011;22056;0.000;0.000;2023-11-21T00:40:28;2.10;;;0.77;;
35977;SDS011;22056;0.000;0.000;2023-11-21T00:42:54;2.20;;;0.50;;
35977;SDS011;22056;0.000;0.000;2023-11-21T00:45:21;1.65;;;0.60;;
35977;SDS011;22056;0.000;0.000;2023-11-21T00:47:47;2.33;;;0.50;;
35977;SDS011;22056;0.000;0.000;2023-11-21T00:50:13;2.10;;;0.40;;
35977;SDS011;22056;0.000;0.000;2023-11-21T00:52:40;0.70;;;0.40;;
35977;SDS011;22056;0.000;0.000;2023-11-21T00:55:06;0.80;;;0.35;;
35977;SDS011;22056;0.000;0.000;2023-11-21T00:57:33;1.90;;;0.88;;
35977;SDS011;22056;0.000;0.000;2023-11-21T00:59:59;0.68;;;0.35;;
35977;SDS011;22056;0.000;0.000;2023-11-21T01:02:25;2.50;;;0.40;;
35977;SDS011;22056;0.000;0.000;2023-11-21T01:04:52;0.50;;;0.30;;
35977;SDS011;22056;0.000;0.000;2023-11-21T01:07:18;1.27;;;0.68;;
35977;SDS011;22056;0.000;0.000;2023-11-21T01:09:45;1.63;;;0.60;;
35977;SDS011;22056;0.000;0.000;2023-11-21T01:12:12;1.25;;;0.45;;
35977;SDS011;22056;0.000;0.000;2023-11-21T01:14:38;0.50;;;0.40;;
35977;SDS011;22056;0.000;0.000;2023-11-21T01:17:04;1.25;;;0.50;;
35977;SDS011;22056;0.000;0.000;2023-11-21T01:19:30;1.20;;;0.50;;
35977;SDS011;22056;0.000;0.000;2023-11-21T01:21:56;2.28;;;0.40;;
35977;SDS011;22056;0.000;0.000;2023-11-21T01:24:23;1.15;;;0.40;;
35977;SDS011;22056;0.000;0.000;2023-11-21T01:26:50;1.00;;;0.60;;
35977;SDS011;22056;0.000;0.000;2023-11-21T01:29:16;1.15;;;0.32;;
35977;SDS011;22056;0.000;0.000;2023-11-21T01:31:42;1.35;;;0.40;;
35977;SDS011;22056;0.000;0.000;2023-11-21T01:34:08;0.77;;;0.40;;
35977;SDS011;22056;0.000;0.000;2023-11-21T01:36:34;0.77;;;0.50;;
35977;SDS011;22056;0.000;0.000;2023-11-21T01:39:00;0.63;;;0.40;;
35977;SDS011;22056;0.000;0.000;2023-11-21T01:41:27;0.57;;;0.50;;
35977;SDS011;22056;0.000;0.000;2023-11-21T01:43:54;0.85;;;0.50;;
35977;SDS011;22056;0.000;0.000;2023-11-21T01:46:20;1.27;;;0.35;;
35977;SDS011;22056;0.000;0.000;2023-11-21T01:48:47;1.63;;;0.40;;
35977;SDS011;22056;0.000;0.000;2023-11-21T01:51:14;0.47;;;0.30;;
35977;SDS011;22056;0.000;0.000;2023-11-21T01:53:40;0.50;;;0.40;;
35977;SDS011;22056;0.000;0.000;2023-11-21T01:56:07;1.75;;;0.40;;
35977;SDS011;22056;0.000;0.000;2023-11-21T01:58:34;0.47;;;0.30;;
35977;SDS011;22056;0.000;0.000;2023-11-21T02:01:01;0.82;;;0.40;;
35977;SDS011;22056;0.000;0.000;2023-11-21T02:03:27;0.80;;;0.40;;
35977;SDS011;22056;0.000;0.000;2023-11-21T02:05:53;0.50;;;0.40;;
35977;SDS011;22056;0.000;0.000;2023-11-21T02:08:19;0.90;;;0.35;;
35977;SDS011;22056;0.000;0.000;2023-11-21T02:10:45;0.68;;;0.35;;
35977;SDS011;22056;0.000;0.000;2023-11-21T02:13:12;1.05;;;0.35;;
35977;SDS011;22056;0.000;0.000;2023-11-21T02:15:39;0.43;;;0.30;;
35977;SDS011;22056;0.000;0.000;2023-11-21T02:18:06;1.02;;;0.50;;
35977;SDS011;22056;0.000;0.000;2023-11-21T02:20:32;0.30;;;0.30;;
35977;SDS011;22056;0.000;0.000;2023-11-21T02:23:00;1.23;;;0.40;;
35977;SDS011;22056;0.000;0.000;2023-11-21T02:25:27;1.27;;;0.30;;
35977;SDS011;22056;0.000;0.000;2023-11-21T02:27:53;0.77;;;0.30;;
35977;SDS011;22056;0.000;0.000;2023-11-21T02:30:20;0.93;;;0.20;;
35977;SDS011;22056;0.000;0.000;2023-11-21T02:32:50;1.00;;;0.38;;
35977;SDS011;22056;0.000;0.000;2023-11-21T02:37:48;1.75;;;0.40;;
35977;SDS011;22056;0.000;0.000;2023-11-21T02:40:15;1.50;;;0.40;;
35977;SDS011;22056;0.000;0.000;2023-11-21T02:42:48;0.25;;;0.25;;
35977;SDS011;22056;0.000;0.000;2023-11-21T02:47:45;0.52;;;0.30;;
35977;SDS011;22056;0.000;0.000;2023-11-21T02:50:12;0.30;;;0.30;;
35977;SDS011;22056;0.000;0.000;2023-11-21T02:52:38;0.20;;;0.20;;
35977;SDS011;22056;0.000;0.000;2023-11-21T02:55:07;0.55;;;0.35;;
35977;SDS011;22056;0.000;0.000;2023-11-21T02:57:34;0.22;;;0.20;;
35977;SDS011;22056;0.000;0.000;2023-11-21T03:00:00;0.50;;;0.35;;
35977;SDS011;22056;0.000;0.000;2023-11-21T03:02:26;0.63;;;0.38;;
35977;SDS011;22056;0.000;0.000;2023-11-21T03:04:52;0.52;;;0.30;;
35977;SDS011;22056;0.000;0.000;2023-11-21T03:07:18;0.38;;;0.28;;
35977;SDS011;22056;0.000;0.000;2023-11-21T03:09:47;0.43;;;0.30;;
35977;SDS011;22056;0.000;0.000;2023-11-21T03:12:13;0.40;;;0.30;;
35977;SDS011;22056;0.000;0.000;2023-11-21T03:14:41;0.30;;;0.30;;
35977;SDS011;22056;0.000;0.000;2023-11-21T03:17:07;0.73;;;0.43;;
35977;SDS011;22056;0.000;0.000;2023-11-21T03:19:33;0.68;;;0.40;;
35977;SDS011;22056;0.000;0.000;2023-11-21T03:21:59;0.75;;;0.40;;
35977;SDS011;22056;0.000;0.000;2023-11-21T03:24:25;1.30;;;0.30;;
35977;SDS011;22056;0.000;0.000;2023-11-21T03:26:51;0.50;;;0.32;;
35977;SDS011;22056;0.000;0.000;2023-11-21T03:29:18;0.98;;;0.30;;
35977;SDS011;22056;0.000;0.000;2023-11-21T03:31:44;0.50;;;0.30;;
35977;SDS011;22056;0.000;0.000;2023-11-21T03:34:14;1.10;;;0.30;;
35977;SDS011;22056;0.000;0.000;2023-11-21T03:36:40;0.30;;;0.30;;
35977;SDS011;22056;0.000;0.000;2023-11-21T03:39:07;0.30;;;0.30;;
35977;SDS011;22056;0.000;0.000;2023-11-21T03:41:33;1.15;;;0.30;;
35977;SDS011;22056;0.000;0.000;2023-11-21T03:43:59;0.40;;;0.38;;
35977;SDS011;22056;0.000;0.000;2023-11-21T03:46:25;1.70;;;0.38;;
35977;SDS011;22056;0.000;0.000;2023-11-21T03:48:51;0.30;;;0.20;;
35977;SDS011;22056;0.000;0.000;2023-11-21T03:51:17;0.43;;;0.30;;
35977;SDS011;22056;0.000;0.000;2023-11-21T03:53:43;0.82;;;0.30;;
35977;SDS011;22056;0.000;0.000;2023-11-21T03:56:10;0.35;;;0.25;;
35977;SDS011;22056;0.000;0.000;2023-11-21T03:58:36;1.48;;;0.20;;
35977;SDS011;22056;0.000;0.000;2023-11-21T04:01:02;0.60;;;0.40;;
35977;SDS011;22056;0.000;0.000;2023-11-21T04:03:28;0.40;;;0.30;;
35977;SDS011;22056;0.000;0.000;2023-11-21T04:05:55;0.25;;;0.20;;
35977;SDS011;22056;0.000;0.000;2023-11-21T04:08:21;0.20;;;0.20;;
35977;SDS011;22056;0.000;0.000;2023-11-21T04:10:47;0.20;;;0.20;;
35977;SDS011;22056;0.000;0.000;2023-11-21T04:13:13;0.50;;;0.30;;
35977;SDS011;22056;0.000;0.000;2023-11-21T04:15:39;0.35;;;0.30;;
35977;SDS011;22056;0.000;0.000;2023-11-21T04:18:06;0.30;;;0.30;;
35977;SDS011;22056;0.000;0.000;2023-11-21T04:20:32;0.30;;;0.22;;
35977;SDS011;22056;0.000;0.000;2023-11-21T04:22:58;0.30;;;0.30;;
35977;SDS011;22056;0.000;0.000;2023-11-21T04:25:24;0.35;;;0.30;;
35977;SDS011;22056;0.000;0.000;2023-11-21T04:27:50;0.30;;;0.30;;
35977;SDS011;22056;0.000;0.000;2023-11-21T04:30:16;0.65;;;0.20;;
35977;SDS011;22056;0.000;0.000;2023-11-21T04:32:42;0.50;;;0.30;;
35977;SDS011;22056;0.000;0.000;2023-11-21T04:35:09;0.55;;;0.35;;
35977;SDS011;22056;0.000;0.000;2023-11-21T04:37:35;0.20;;;0.20;;
35977;SDS011;22056;0.000;0.000;2023-11-21T04:40:02;0.45;;;0.30;;
35977;SDS011;22056;0.000;0.000;2023-11-21T04:42:32;0.60;;;0.30;;
35977;SDS011;22056;0.000;0.000;2023-11-21T04:44:58;0.95;;;0.30;;
35977;SDS011;22056;0.000;0.000;2023-11-21T04:47:24;0.30;;;0.30;;
35977;SDS011;22056;0.000;0.000;2023-11-21T04:49:50;0.30;;;0.28;;
35977;SDS011;22056;0.000;0.000;2023-11-21T04:52:17;0.55;;;0.30;;
35977;SDS011;22056;0.000;0.000;2023-11-21T04:54:45;0.85;;;0.40;;
35977;SDS011;22056;0.000;0.000;2023-11-21T04:57:11;0.30;;;0.30;;
35977;SDS011;22056;0.000;0.000;2023-11-21T04:59:37;1.40;;;0.30;;
35977;SDS011;22056;0.000;0.000;2023-11-21T05:02:03;0.30;;;0.30;;
35977;SDS011;22056;0.000;0.000;2023-11-21T05:04:30;0.32;;;0.30;;
35977;SDS011;22056;0.000;0.000;2023-11-21T05:06:56;0.60;;;0.30;;
35977;SDS011;22056;0.000;0.000;2023-11-21T05:09:22;1.50;;;0.40;;
35977;SDS011;22056;0.000;0.000;2023-11-21T05:11:48;0.80;;;0.40;;
35977;SDS011;22056;0.000;0.000;2023-11-21T05:14:15;0.68;;;0.40;;
35977;SDS011;22056;0.000;0.000;2023-11-21T05:16:41;0.80;;;0.30;;
35977;SDS011;22056;0.000;0.000;2023-11-21T05:19:07;0.95;;;0.35;;
35977;SDS011;22056;0.000;0.000;2023-11-21T05:21:34;1.27;;;0.40;;
35977;SDS011;22056;0.000;0.000;2023-11-21T05:24:01;0.98;;;0.40;;
35977;SDS011;22056;0.000;0.000;2023-11-21T05:26:27;1.20;;;0.52;;
35977;SDS011;22056;0.000;0.000;2023-11-21T05:28:53;1.23;;;0.40;;
35977;SDS011;22056;0.000;0.000;2023-11-21T05:31:20;0.55;;;0.30;;
35977;SDS011;22056;0.000;0.000;2023-11-21T05:33:46;0.95;;;0.40;;
35977;SDS011;22056;0.000;0.000;2023-11-21T05:36:13;0.85;;;0.38;;
35977;SDS011;22056;0.000;0.000;2023-11-21T05:38:39;0.75;;;0.43;;
35977;SDS011;22056;0.000;0.000;2023-11-21T05:41:06;0.93;;;0.40;;
35977;SDS011;22056;0.000;0.000;2023-11-21T05:43:36;1.33;;;0.40;;
35977;SDS011;22056;0.000;0.000;2023-11-21T05:46:02;1.38;;;0.40;;
35977;SDS011;22056;0.000;0.000;2023-11-21T05:48:28;1.30;;;0.40;;
35977;SDS011;22056;0.000;0.000;2023-11-21T05:50:54;1.50;;;0.50;;
35977;SDS011;22056;0.000;0.000;2023-11-21T05:53:21;0.50;;;0.38;;
35977;SDS011;22056;0.000;0.000;2023-11-21T05:55:47;0.90;;;0.43;;
35977;SDS011;22056;0.000;0.000;2023-11-21T05:58:13;0.30;;;0.30;;
35977;SDS011;22056;0.000;0.000;2023-11-21T06:00:39;2.55;;;0.50;;
35977;SDS011;22056;0.000;0.000;2023-11-21T06:03:06;0.88;;;0.60;;
35977;SDS011;22056;0.000;0.000;2023-11-21T06:05:33;0.68;;;0.40;;
35977;SDS011;22056;0.000;0.000;2023-11-21T06:07:59;0.50;;;0.30;;
35977;SDS011;22056;0.000;0.000;2023-11-21T06:10:26;1.25;;;0.60;;
35977;SDS011;22056;0.000;0.000;2023-11-21T06:12:53;3.50;;;0.52;;
35977;SDS011;22056;0.000;0.000;2023-11-21T06:15:19;1.92;;;0.30;;
35977;SDS011;22056;0.000;0.000;2023-11-21T06:17:47;2.40;;;0.40;;
35977;SDS011;22056;0.000;0.000;2023-11-21T06:20:20;0.85;;;0.43;;
35977;SDS011;22056;0.000;0.000;2023-11-21T06:22:46;1.85;;;0.52;;
35977;SDS011;22056;0.000;0.000;2023-11-21T06:25:13;2.35;;;0.47;;
35977;SDS011;22056;0.000;0.000;2023-11-21T06:27:41;1.75;;;0.40;;
35977;SDS011;22056;0.000;0.000;2023-11-21T06:30:07;2.55;;;0.60;;
35977;SDS011;22056;0.000;0.000;2023-11-21T06:32:37;1.13;;;0.68;;
35977;SDS011;22056;0.000;0.000;2023-11-21T06:35:03;3.03;;;0.70;;
35977;SDS011;22056;0.000;0.000;2023-11-21T06:37:30;1.95;;;0.63;;
35977;SDS011;22056;0.000;0.000;2023-11-21T06:39:57;1.63;;;0.57;;
35977;SDS011;22056;0.000;0.000;2023-11-21T06:42:23;8.45;;;0.75;;
35977;SDS011;22056;0.000;0.000;2023-11-21T06:44:50;2.17;;;0.70;;
35977;SDS011;22056;0.000;0.000;2023-11-21T06:47:22;2.78;;;0.70;;
35977;SDS011;22056;0.000;0.000;2023-11-21T06:49:50;1.77;;;0.63;;
35977;SDS011;22056;0.000;0.000;2023-11-21T06:52:16;1.38;;;0.60;;
35977;SDS011;22056;0.000;0.000;2023-11-21T06:54:42;2.10;;;0.75;;
35977;SDS011;22056;0.000;0.000;2023-11-21T06:57:08;3.17;;;0.82;;
35977;SDS011;22056;0.000;0.000;2023-11-21T06:59:34;1.85;;;0.60;;
35977;SDS011;22056;0.000;0.000;2023-11-21T07:02:00;3.00;;;1.00;;
35977;SDS011;22056;0.000;0.000;2023-11-21T07:04:27;3.45;;;0.85;;
35977;SDS011;22056;0.000;0.000;2023-11-21T07:06:53;1.50;;;0.60;;
35977;SDS011;22056;0.000;0.000;2023-11-21T07:09:20;1.13;;;0.50;;
35977;SDS011;22056;0.000;0.000;2023-11-21T07:11:51;3.92;;;0.70;;
35977;SDS011;22056;0.000;0.000;2023-11-21T07:14:17;1.00;;;0.50;;
35977;SDS011;22056;0.000;0.000;2023-11-21T07:16:44;1.08;;;0.70;;
35977;SDS011;22056;0.000;0.000;2023-11-21T07:19:10;2.90;;;0.68;;
35977;SDS011;22056;0.000;0.000;2023-11-21T07:21:37;6.03;;;0.80;;
35977;SDS011;22056;0.000;0.000;2023-11-21T07:24:04;2.55;;;0.70;;
35977;SDS011;22056;0.000;0.000;2023-11-21T07:26:31;1.00;;;0.57;;
35977;SDS011;22056;0.000;0.000;2023-11-21T07:28:58;2.58;;;1.00;;
35977;SDS011;22056;0.000;0.000;2023-11-21T07:31:25;2.47;;;0.80;;
35977;SDS011;22056;0.000;0.000;2023-11-21T07:33:51;4.85;;;0.52;;
35977;SDS011;22056;0.000;0.000;2023-11-21T07:36:18;3.30;;;0.55;;
35977;SDS011;22056;0.000;0.000;2023-11-21T07:38:48;2.83;;;0.60;;
35977;SDS011;22056;0.000;0.000;2023-11-21T07:41:14;3.72;;;0.80;;
35977;SDS011;22056;0.000;0.000;2023-11-21T07:43:41;3.97;;;0.63;;
35977;SDS011;22056;0.000;0.000;2023-11-21T07:46:07;2.92;;;0.75;;
35977;SDS011;22056;0.000;0.000;2023-11-21T07:48:34;2.33;;;0.73;;
35977;SDS011;22056;0.000;0.000;2023-11-21T07:51:01;4.55;;;0.70;;
35977;SDS011;22056;0.000;0.000;2023-11-21T07:53:32;2.27;;;0.50;;
35977;SDS011;22056;0.000;0.000;2023-11-21T07:55:58;2.45;;;0.80;;
35977;SDS011;22056;0.000;0.000;2023-11-21T07:58:25;4.35;;;1.00;;
35977;SDS011;22056;0.000;0.000;2023-11-21T08:00:51;2.67;;;0.90;;
35977;SDS011;22056;0.000;0.000;2023-11-21T08:03:17;3.33;;;0.60;;
35977;SDS011;22056;0.000;0.000;2023-11-21T08:05:43;2.65;;;0.77;;
35977;SDS011;22056;0.000;0.000;2023-11-21T08:08:09;2.92;;;0.60;;
35977;SDS011;22056;0.000;0.000;2023-11-21T08:10:36;2.75;;;0.77;;
35977;SDS011;22056;0.000;0.000;2023-11-21T08:13:04;2.33;;;0.85;;
35977;SDS011;22056;0.000;0.000;2023-11-21T08:15:30;2.05;;;0.60;;
35977;SDS011;22056;0.000;0.000;2023-11-21T08:18:02;5.37;;;1.03;;
35977;SDS011;22056;0.000;0.000;2023-11-21T08:20:30;2.33;;;0.73;;
35977;SDS011;22056;0.000;0.000;2023-11-21T08:22:56;1.95;;;0.80;;
35977;SDS011;22056;0.000;0.000;2023-11-21T08:25:22;4.32;;;0.60;;
35977;SDS011;22056;0.000;0.000;2023-11-21T08:27:48;2.97;;;0.70;;
35977;SDS011;22056;0.000;0.000;2023-11-21T08:30:14;3.63;;;0.70;;
35977;SDS011;22056;0.000;0.000;2023-11-21T08:32:42;2.75;;;1.00;;
35977;SDS011;22056;0.000;0.000;2023-11-21T08:35:08;5.07;;;0.80;;
35977;SDS011;22056;0.000;0.000;2023-11-21T08:37:35;4.22;;;0.82;;
35977;SDS011;22056;0.000;0.000;2023-11-21T08:40:03;2.63;;;0.75;;
35977;SDS011;22056;0.000;0.000;2023-11-21T08:42:29;1.65;;;0.60;;
35977;SDS011;22056;0.000;0.000;2023-11-21T08:44:55;2.60;;;0.73;;
35977;SDS011;22056;0.000;0.000;2023-11-21T08:47:24;2.10;;;0.90;;
35977;SDS011;22056;0.000;0.000;2023-11-21T08:49:51;2.08;;;0.73;;
35977;SDS011;22056;0.000;0.000;2023-11-21T08:52:18;4.05;;;0.85;;
35977;SDS011;22056;0.000;0.000;2023-11-21T08:54:53;4.65;;;0.50;;
35977;SDS011;22056;0.000;0.000;2023-11-21T08:57:24;3.75;;;0.77;;
35977;SDS011;22056;0.000;0.000;2023-11-21T08:59:51;4.93;;;0.60;;
35977;SDS011;22056;0.000;0.000;2023-11-21T09:02:21;4.32;;;0.60;;
35977;SDS011;22056;0.000;0.000;2023-11-21T09:04:48;1.40;;;0.60;;
35977;SDS011;22056;0.000;0.000;2023-11-21T09:07:15;1.33;;;0.68;;
35977;SDS011;22056;0.000;0.000;2023-11-21T09:09:42;4.00;;;0.70;;
35977;SDS011;22056;0.000;0.000;2023-11-21T09:12:08;4.60;;;0.55;;
35977;SDS011;22056;0.000;0.000;2023-11-21T09:14:37;2.95;;;0.60;;
35977;SDS011;22056;0.000;0.000;2023-11-21T09:17:04;3.42;;;0.85;;
35977;SDS011;22056;0.000;0.000;2023-11-21T09:19:36;0.85;;;0.47;;
35977;SDS011;22056;0.000;0.000;2023-11-21T09:22:02;2.13;;;1.02;;
35977;SDS011;22056;0.000;0.000;2023-11-21T09:24:30;1.42;;;0.70;;
35977;SDS011;22056;0.000;0.000;2023-11-21T09:26:56;2.63;;;0.70;;
35977;SDS011;22056;0.000;0.000;2023-11-21T09:29:22;2.20;;;0.47;;
35977;SDS011;22056;0.000;0.000;2023-11-21T09:31:49;3.40;;;0.70;;
35977;SDS011;22056;0.000;0.000;2023-11-21T09:34:16;1.45;;;0.50;;
35977;SDS011;22056;0.000;0.000;2023-11-21T09:36:45;1.90;;;0.80;;
35977;SDS011;22056;0.000;0.000;2023-11-21T09:39:12;2.58;;;0.80;;
35977;SDS011;22056;0.000;0.000;2023-11-21T09:44:09;1.98;;;0.82;;
35977;SDS011;22056;0.000;0.000;2023-11-21T09:46:38;3.00;;;0.93;;
35977;SDS011;22056;0.000;0.000;2023-11-21T09:49:06;2.33;;;0.60;;
35977;SDS011;22056;0.000;0.000;2023-11-21T09:51:39;1.88;;;0.50;;
35977;SDS011;22056;0.000;0.000;2023-11-21T09:54:06;1.52;;;0.60;;
35977;SDS011;22056;0.000;0.000;2023-11-21T09:56:33;2.90;;;0.80;;
35977;SDS011;22056;0.000;0.000;2023-11-21T09:59:01;2.53;;;0.60;;
35977;SDS011;22056;0.000;0.000;2023-11-21T10:01:31;2.67;;;0.55;;
35977;SDS011;22056;0.000;0.000;2023-11-21T10:03:58;3.08;;;0.57;;
35977;SDS011;22056;0.000;0.000;2023-11-21T10:06:25;1.05;;;0.50;;
35977;SDS011;22056;0.000;0.000;2023-11-21T10:08:55;1.92;;;0.70;;
35977;SDS011;22056;0.000;0.000;2023-11-21T10:11:27;2.47;;;0.60;;
35977;SDS011;22056;0.000;0.000;2023-11-21T10:13:53;0.95;;;0.40;;
35977;SDS011;22056;0.000;0.000;2023-11-21T10:16:22;1.85;;;0.60;;
35977;SDS011;22056;0.000;0.000;2023-11-21T10:18:51;1.02;;;0.50;;
35977;SDS011;22056;0.000;0.000;2023-11-21T10:21:21;5.03;;;0.70;;
35977;SDS011;22056;0.000;0.000;2023-11-21T10:23:47;1.27;;;0.50;;
35977;SDS011;22056;0.000;0.000;2023-11-21T10:26:13;4.93;;;0.82;;
35977;SDS011;22056;0.000;0.000;2023-11-21T10:28:58;1.63;;;0.70;;
35977;SDS011;22056;0.000;0.000;2023-11-21T10:31:26;1.85;;;0.60;;
35977;SDS011;22056;0.000;0.000;2023-11-21T10:33:53;2.55;;;0.70;;
35977;SDS011;22056;0.000;0.000;2023-11-21T10:36:27;1.08;;;0.50;;
35977;SDS011;22056;0.000;0.000;2023-11-21T10:38:54;3.00;;;0.70;;
35977;SDS011;22056;0.000;0.000;2023-11-21T10:41:20;2.13;;;0.60;;
35977;SDS011;22056;0.000;0.000;2023-11-21T10:43:46;1.65;;;0.50;;
35977;SDS011;22056;0.000;0.000;2023-11-21T10:46:14;1.73;;;0.70;;
35977;SDS011;22056;0.000;0.000;2023-11-21T10:48:41;0.98;;;0.50;;
35977;SDS011;22056;0.000;0.000;2023-11-21T10:51:08;2.53;;;0.60;;
35977;SDS011;22056;0.000;0.000;2023-11-21T10:53:38;1.85;;;0.47;;
35977;SDS011;22056;0.000;0.000;2023-11-21T10:56:05;3.75;;;0.60;;
35977;SDS011;22056;0.000;0.000;2023-11-21T10:58:32;2.40;;;0.55;;
35977;SDS011;22056;0.000;0.000;2023-11-21T11:00:59;1.80;;;0.55;;
35977;SDS011;22056;0.000;0.000;2023-11-21T11:03:25;1.67;;;0.50;;
35977;SDS011;22056;0.000;0.000;2023-11-21T11:05:52;3.47;;;0.52;;
35977;SDS011;22056;0.000;0.000;2023-11-21T11:08:20;1.73;;;0.60;;
35977;SDS011;22056;0.000;0.000;2023-11-21T11:10:51;1.15;;;0.60;;
35977;SDS011;22056;0.000;0.000;2023-11-21T11:13:18;2.20;;;0.50;;
35977;SDS011;22056;0.000;0.000;2023-11-21T11:15:47;1.50;;;0.50;;
35977;SDS011;22056;0.000;0.000;2023-11-21T11:18:13;1.13;;;0.40;;
35977;SDS011;22056;0.000;0.000;2023-11-21T11:20:40;0.93;;;0.50;;
35977;SDS011;22056;0.000;0.000;2023-11-21T11:28:57;1.63;;;0.50;;
35977;SDS011;22056;0.000;0.000;2023-11-21T11:31:40;2.10;;;0.68;;
35977;SDS011;22056;0.000;0.000;2023-11-21T11:36:44;1.25;;;0.55;;
35977;SDS011;22056;0.000;0.000;2023-11-21T11:41:59;1.98;;;0.60;;
35977;SDS011;22056;0.000;0.000;2023-11-21T11:47:15;0.93;;;0.57;;
35977;SDS011;22056;0.000;0.000;2023-11-21T11:52:42;3.25;;;0.63;;
35977;SDS011;22056;0.000;0.000;2023-11-21T11:55:09;1.05;;;0.52;;
35977;SDS011;22056;0.000;0.000;2023-11-21T11:57:35;1.92;;;0.70;;
35977;SDS011;22056;0.000;0.000;2023-11-21T12:02:51;1.40;;;0.70;;
35977;SDS011;22056;0.000;0.000;2023-11-21T12:05:19;1.45;;;0.55;;
35977;SDS011;22056;0.000;0.000;2023-11-21T12:10:15;5.15;;;0.65;;
35977;SDS011;22056;0.000;0.000;2023-11-21T12:12:45;1.73;;;0.50;;
35977;SDS011;22056;0.000;0.000;2023-11-21T12:15:11;3.70;;;0.50;;
35977;SDS011;22056;0.000;0.000;2023-11-21T12:17:38;1.60;;;0.47;;
35977;SDS011;22056;0.000;0.000;2023-11-21T12:20:05;3.20;;;0.57;;
35977;SDS011;22056;0.000;0.000;2023-11-21T12:22:39;1.30;;;0.60;;
35977;SDS011;22056;0.000;0.000;2023-11-21T12:25:06;2.28;;;0.60;;
35977;SDS011;22056;0.000;0.000;2023-11-21T12:27:32;2.13;;;0.60;;
35977;SDS011;22056;0.000;0.000;2023-11-21T12:29:59;1.38;;;0.70;;
35977;SDS011;22056;0.000;0.000;2023-11-21T12:32:25;2.15;;;0.70;;
35977;SDS011;22056;0.000;0.000;2023-11-21T12:34:51;2.22;;;0.70;;
35977;SDS011;22056;0.000;0.000;2023-11-21T12:37:18;2.58;;;0.70;;
35977;SDS011;22056;0.000;0.000;2023-11-21T12:39:44;3.17;;;0.60;;
35977;SDS011;22056;0.000;0.000;2023-11-21T12:42:10;1.88;;;0.52;;
35977;SDS011;22056;0.000;0.000;2023-11-21T12:44:36;1.83;;;0.80;;
35977;SDS011;22056;0.000;0.000;2023-11-21T12:47:06;0.90;;;0.43;;
35977;SDS011;22056;0.000;0.000;2023-11-21T12:49:32;3.42;;;0.68;;
35977;SDS011;22056;0.000;0.000;2023-11-21T12:51:59;2.38;;;0.73;;
35977;SDS011;22056;0.000;0.000;2023-11-21T12:54:25;1.88;;;0.50;;
35977;SDS011;22056;0.000;0.000;2023-11-21T12:56:51;4.57;;;0.60;;
35977;SDS011;22056;0.000;0.000;2023-11-21T12:59:17;1.95;;;0.70;;
35977;SDS011;22056;0.000;0.000;2023-11-21T13:01:46;1.33;;;0.45;;
35977;SDS011;22056;0.000;0.000;2023-11-21T13:04:16;2.47;;;0.70;;
35977;SDS011;22056;0.000;0.000;2023-11-21T13:06:43;1.10;;;0.43;;
35977;SDS011;22056;0.000;0.000;2023-11-21T13:09:09;1.70;;;0.50;;
35977;SDS011;22056;0.000;0.000;2023-11-21T13:11:36;2.58;;;0.75;;
35977;SDS011;22056;0.000;0.000;2023-11-21T13:14:04;1.45;;;0.47;;
35977;SDS011;22056;0.000;0.000;2023-11-21T13:16:30;1.90;;;0.50;;
35977;SDS011;22056;0.000;0.000;2023-11-21T13:18:56;2.22;;;0.60;;
35977;SDS011;22056;0.000;0.000;2023-11-21T13:21:23;2.58;;;0.50;;
35977;SDS011;22056;0.000;0.000;2023-11-21T13:23:49;4.15;;;0.70;;
35977;SDS011;22056;0.000;0.000;2023-11-21T13:26:18;2.67;;;0.70;;
35977;SDS011;22056;0.000;0.000;2023-11-21T13:28:45;2.92;;;0.47;;
35977;SDS011;22056;0.000;0.000;2023-11-21T13:31:12;3.20;;;0.55;;
35977;SDS011;22056;0.000;0.000;2023-11-21T13:33:52;2.38;;;0.98;;
35977;SDS011;22056;0.000;0.000;2023-11-21T13:36:24;2.33;;;0.57;;
35977;SDS011;22056;0.000;0.000;2023-11-21T13:38:50;1.80;;;0.57;;
35977;SDS011;22056;0.000;0.000;2023-11-21T13:41:18;1.92;;;0.45;;
35977;SDS011;22056;0.000;0.000;2023-11-21T13:43:44;2.25;;;0.52;;
35977;SDS011;22056;0.000;0.000;2023-11-21T13:46:13;4.32;;;0.70;;
35977;SDS011;22056;0.000;0.000;2023-11-21T13:48:42;4.18;;;0.50;;
35977;SDS011;22056;0.000;0.000;2023-11-21T13:51:15;1.52;;;0.47;;
35977;SDS011;22056;0.000;0.000;2023-11-21T13:53:46;1.38;;;0.50;;
35977;SDS011;22056;0.000;0.000;2023-11-21T13:56:17;2.43;;;0.50;;
35977;SDS011;22056;0.000;0.000;2023-11-21T13:58:54;2.53;;;0.40;;
35977;SDS011;22056;0.000;0.000;2023-11-21T14:01:23;1.70;;;0.47;;
35977;SDS011;22056;0.000;0.000;2023-11-21T14:03:56;2.25;;;0.40;;
35977;SDS011;22056;0.000;0.000;2023-11-21T14:06:27;1.52;;;0.50;;
35977;SDS011;22056;0.000;0.000;2023-11-21T14:09:02;2.30;;;0.50;;
35977;SDS011;22056;0.000;0.000;2023-11-21T14:11:30;1.88;;;0.60;;
35977;SDS011;22056;0.000;0.000;2023-11-21T14:13:56;1.40;;;0.50;;
35977;SDS011;22056;0.000;0.000;2023-11-21T14:16:24;2.85;;;0.50;;
35977;SDS011;22056;0.000;0.000;2023-11-21T14:18:50;3.75;;;0.60;;
35977;SDS011;22056;0.000;0.000;2023-11-21T14:21:29;2.28;;;0.50;;
35977;SDS011;22056;0.000;0.000;2023-11-21T14:23:55;2.75;;;0.38;;
35977;SDS011;22056;0.000;0.000;2023-11-21T14:26:21;3.15;;;0.60;;
35977;SDS011;22056;0.000;0.000;2023-11-21T14:28:49;1.63;;;0.50;;
35977;SDS011;22056;0.000;0.000;2023-11-21T14:31:16;1.17;;;0.40;;
35977;SDS011;22056;0.000;0.000;2023-11-21T14:33:44;0.63;;;0.43;;
35977;SDS011;22056;0.000;0.000;2023-11-21T14:36:10;1.27;;;0.50;;
35977;SDS011;22056;0.000;0.000;2023-11-21T14:38:37;3.22;;;0.50;;
35977;SDS011;22056;0.000;0.000;2023-11-21T14:41:05;1.75;;;0.55;;
35977;SDS011;22056;0.000;0.000;2023-11-21T14:43:36;2.80;;;0.60;;
35977;SDS011;22056;0.000;0.000;2023-11-21T14:46:04;1.98;;;0.50;;
35977;SDS011;22056;0.000;0.000;2023-11-21T14:48:35;1.30;;;0.47;;
35977;SDS011;22056;0.000;0.000;2023-11-21T14:51:10;2.30;;;0.70;;
35977;SDS011;22056;0.000;0.000;2023-11-21T14:53:55;1.95;;;0.40;;
35977;SDS011;22056;0.000;0.000;2023-11-21T14:56:25;1.27;;;0.40;;
35977;SDS011;22056;0.000;0.000;2023-11-21T14:58:59;2.83;;;0.50;;
35977;SDS011;22056;0.000;0.000;2023-11-21T15:01:31;3.97;;;0.60;;
35977;SDS011;22056;0.000;0.000;2023-11-21T15:04:20;0.73;;;0.35;;
35977;SDS011;22056;0.000;0.000;2023-11-21T15:06:58;2.75;;;0.32;;
35977;SDS011;22056;0.000;0.000;2023-11-21T15:09:24;2.10;;;0.30;;
35977;SDS011;22056;0.000;0.000;2023-11-21T15:11:53;0.82;;;0.40;;
35977;SDS011;22056;0.000;0.000;2023-11-21T15:14:24;1.60;;;0.60;;
35977;SDS011;22056;0.000;0.000;2023-11-21T15:16:56;0.88;;;0.40;;
35977;SDS011;22056;0.000;0.000;2023-11-21T15:19:25;1.85;;;0.45;;
35977;SDS011;22056;0.000;0.000;2023-11-21T15:21:51;0.80;;;0.38;;
35977;SDS011;22056;0.000;0.000;2023-11-21T15:24:18;1.77;;;0.50;;
35977;SDS011;22056;0.000;0.000;2023-11-21T15:26:44;2.78;;;0.60;;
35977;SDS011;22056;0.000;0.000;2023-11-21T15:29:10;1.15;;;0.57;;
35977;SDS011;22056;0.000;0.000;2023-11-21T15:31:37;1.58;;;0.35;;